Time;durP1;ratioP1;P1;durP2;ratioP2;P2;SDS_P1;SDS_P2;PMS_P1;PMS_P2;Temp;Humidity;BMP_temperature;BMP_pressure;BME280_temperature;BME280_humidity;BME280_pressure;Samples;Min_cycle;Max_cycle;Signal;HPM_P1;HPM_P2
2021/08/05 00:01:04;;;;;;;2.70;2.50;;;16.50;90.50;;;;;;4991578;28;20487;-65
2021/08/05 00:03:30;;;;;;;3.47;2.47;;;16.50;90.60;;;;;;4998872;28;20032;-65
2021/08/05 00:05:55;;;;;;;2.83;2.53;;;16.50;90.60;;;;;;4972384;28;20046;-67
2021/08/05 00:08:21;;;;;;;4.25;2.67;;;16.50;90.60;;;;;;4991428;28;20030;-65
2021/08/05 00:10:47;;;;;;;4.95;2.50;;;16.40;90.60;;;;;;4990148;28;20427;-65
2021/08/05 00:13:12;;;;;;;3.25;2.70;;;16.40;90.70;;;;;;4991297;28;20109;-65
2021/08/05 00:15:38;;;;;;;4.10;2.58;;;16.40;90.70;;;;;;4990115;28;20089;-65
2021/08/05 00:18:03;;;;;;;3.55;2.72;;;16.40;90.70;;;;;;4994444;28;20023;-65
2021/08/05 00:20:29;;;;;;;3.10;2.58;;;16.40;90.70;;;;;;4972408;28;20031;-65
2021/08/05 00:22:55;;;;;;;3.60;2.45;;;16.40;90.80;;;;;;4989851;28;20093;-66
2021/08/05 00:25:20;;;;;;;3.63;2.88;;;16.40;90.90;;;;;;4974770;28;20324;-65
2021/08/05 00:27:46;;;;;;;3.00;2.70;;;16.40;91.00;;;;;;4991101;28;20053;-65
2021/08/05 00:30:12;;;;;;;4.57;2.63;;;16.40;91.00;;;;;;4974356;28;20029;-65
2021/08/05 00:32:38;;;;;;;3.28;2.72;;;16.40;91.00;;;;;;4960392;28;20034;-65
2021/08/05 00:35:06;;;;;;;3.33;2.80;;;16.40;91.00;;;;;;4981766;28;20409;-65
2021/08/05 00:37:32;;;;;;;4.03;2.67;;;16.30;91.00;;;;;;5000830;28;20406;-65
2021/08/05 00:39:58;;;;;;;3.15;2.63;;;16.30;91.10;;;;;;4991274;28;20037;-65
2021/08/05 00:42:24;;;;;;;5.90;2.40;;;16.30;91.10;;;;;;4984025;28;20027;-65
2021/08/05 00:44:49;;;;;;;2.97;2.67;;;16.40;91.10;;;;;;4983475;28;20030;-65
2021/08/05 00:47:15;;;;;;;6.57;2.97;;;16.40;91.20;;;;;;4975206;28;20113;-65
2021/08/05 00:49:40;;;;;;;3.97;2.55;;;16.40;91.10;;;;;;4992539;28;20386;-65
2021/08/05 00:52:07;;;;;;;4.68;2.50;;;16.30;91.20;;;;;;4988068;28;20386;-64
2021/08/05 00:54:33;;;;;;;2.85;2.38;;;16.30;91.20;;;;;;4986150;28;20031;-65
2021/08/05 00:56:59;;;;;;;2.72;2.33;;;16.40;91.30;;;;;;4987148;28;20045;-65
2021/08/05 00:59:25;;;;;;;3.05;2.42;;;16.40;91.30;;;;;;4990776;28;20030;-65
2021/08/05 01:01:56;;;;;;;3.42;2.83;;;16.40;91.30;;;;;;4972820;28;20038;-64
2021/08/05 01:04:22;;;;;;;4.70;2.95;;;16.40;91.40;;;;;;4992143;28;20038;-66
2021/08/05 01:07:17;;;;;;;3.33;2.55;;;16.40;91.30;;;;;;4991502;28;20034;-65
2021/08/05 01:10:06;;;;;;;3.80;2.88;;;16.40;91.50;;;;;;4938106;28;20030;-65
2021/08/05 01:12:57;;;;;;;3.90;2.75;;;16.40;91.40;;;;;;4990481;28;20073;-65
2021/08/05 01:15:24;;;;;;;3.70;2.30;;;16.40;91.50;;;;;;4987525;28;20041;-65
2021/08/05 01:17:58;;;;;;;3.00;2.70;;;16.40;91.50;;;;;;4986217;28;20501;-65
2021/08/05 01:20:25;;;;;;;3.13;2.83;;;16.40;91.60;;;;;;4969508;28;20034;-66
2021/08/05 01:23:21;;;;;;;2.90;2.50;;;16.40;91.60;;;;;;4992056;28;20125;-65
2021/08/05 01:25:46;;;;;;;3.17;2.90;;;16.40;91.70;;;;;;4979891;28;20057;-66
2021/08/05 01:28:14;;;;;;;3.15;2.63;;;16.40;91.50;;;;;;4961120;28;20026;-66
2021/08/05 01:30:44;;;;;;;4.65;2.75;;;16.40;91.60;;;;;;4986960;28;20026;-65
2021/08/05 01:33:11;;;;;;;4.03;3.17;;;16.40;91.70;;;;;;4989371;28;20113;-65
2021/08/05 01:35:38;;;;;;;3.17;2.63;;;16.40;91.60;;;;;;4983461;28;20110;-65
2021/08/05 01:38:04;;;;;;;3.65;3.15;;;16.40;91.70;;;;;;4974339;28;20117;-65
2021/08/05 01:40:30;;;;;;;6.70;3.00;;;16.40;91.60;;;;;;4988989;28;20035;-66
2021/08/05 01:42:57;;;;;;;3.83;2.60;;;16.40;91.60;;;;;;4974385;28;20129;-65
2021/08/05 01:45:24;;;;;;;2.40;2.20;;;16.40;91.70;;;;;;4965528;28;20026;-66
2021/08/05 01:47:50;;;;;;;3.70;2.65;;;16.30;91.70;;;;;;4981159;28;20395;-65
2021/08/05 01:50:16;;;;;;;5.25;2.92;;;16.30;91.70;;;;;;4991142;28;20105;-66
2021/08/05 01:52:44;;;;;;;7.28;3.72;;;16.40;91.70;;;;;;4974284;28;20046;-66
2021/08/05 01:55:12;;;;;;;5.05;2.90;;;16.30;91.70;;;;;;4990290;28;20038;-65
2021/08/05 01:57:38;;;;;;;4.13;2.88;;;16.20;91.70;;;;;;4974775;28;20031;-66
2021/08/05 02:00:06;;;;;;;8.02;2.92;;;16.20;91.80;;;;;;4983539;28;20102;-66
2021/08/05 02:02:32;;;;;;;4.43;3.65;;;16.20;91.80;;;;;;4969724;28;20056;-65
2021/08/05 02:05:01;;;;;;;3.20;2.80;;;16.20;91.80;;;;;;4978334;28;20039;-65
2021/08/05 02:07:39;;;;;;;5.75;3.92;;;16.20;91.90;;;;;;4956464;28;20455;-66
2021/08/05 02:10:30;;;;;;;3.17;2.85;;;16.20;92.00;;;;;;4963272;28;20024;-66
2021/08/05 02:13:04;;;;;;;4.25;3.10;;;16.20;92.00;;;;;;4990101;28;20027;-65
2021/08/05 02:15:34;;;;;;;4.55;3.25;;;16.20;92.00;;;;;;4983023;28;20571;-66
2021/08/05 02:18:00;;;;;;;4.10;3.20;;;16.20;91.90;;;;;;4991450;28;20025;-66
2021/08/05 02:20:26;;;;;;;3.67;3.00;;;16.20;91.90;;;;;;4990136;28;20034;-67
2021/08/05 02:22:53;;;;;;;2.90;2.53;;;16.20;92.00;;;;;;4990216;28;20072;-66
2021/08/05 02:25:19;;;;;;;5.13;2.90;;;16.20;92.00;;;;;;4990074;28;20031;-66
2021/08/05 02:27:46;;;;;;;5.13;2.85;;;16.20;92.00;;;;;;4991110;28;20487;-66
2021/08/05 02:30:13;;;;;;;3.40;2.80;;;16.20;92.00;;;;;;4991445;28;20109;-66
2021/08/05 02:32:39;;;;;;;3.28;2.97;;;16.20;92.00;;;;;;4988689;28;20511;-66
2021/08/05 02:35:08;;;;;;;3.15;2.80;;;16.10;92.00;;;;;;4986027;28;20498;-66
2021/08/05 02:37:34;;;;;;;4.30;3.15;;;16.10;92.10;;;;;;4973049;28;20038;-66
2021/08/05 02:40:00;;;;;;;3.67;3.08;;;16.10;92.10;;;;;;4991377;28;20033;-66
2021/08/05 02:42:27;;;;;;;4.18;2.65;;;16.10;92.10;;;;;;4990558;28;20038;-66
2021/08/05 02:44:52;;;;;;;4.90;2.97;;;16.10;92.10;;;;;;4990333;28;20029;-66
2021/08/05 02:47:20;;;;;;;4.88;3.67;;;16.20;92.20;;;;;;4991424;28;20031;-66
2021/08/05 02:49:46;;;;;;;4.13;3.33;;;16.10;92.10;;;;;;4990133;28;20034;-66
2021/08/05 02:52:13;;;;;;;5.22;3.60;;;16.10;92.10;;;;;;4991664;28;20391;-66
2021/08/05 02:54:39;;;;;;;6.55;3.53;;;16.10;92.10;;;;;;4983330;28;20026;-66
2021/08/05 02:57:05;;;;;;;4.32;3.42;;;16.00;92.10;;;;;;4991353;28;20114;-66
2021/08/05 02:59:31;;;;;;;4.90;3.15;;;16.00;92.10;;;;;;4980416;28;20026;-66
2021/08/05 03:01:57;;;;;;;4.10;3.53;;;16.00;92.20;;;;;;4991620;28;20023;-66
2021/08/05 03:06:51;;;;;;;4.20;3.47;;;16.00;92.20;;;;;;5006243;28;20498;-67
2021/08/05 03:09:16;;;;;;;5.30;3.58;;;16.00;92.20;;;;;;5010002;28;20041;-67
2021/08/05 03:11:42;;;;;;;4.60;3.60;;;16.00;92.40;;;;;;5010248;28;20056;-67
2021/08/05 03:14:07;;;;;;;5.07;3.58;;;16.00;92.20;;;;;;5009772;28;20075;-67
2021/08/05 03:16:33;;;;;;;4.35;3.83;;;15.90;92.20;;;;;;5008443;28;20030;-68
2021/08/05 03:18:59;;;;;;;6.57;4.22;;;15.90;92.20;;;;;;5010034;28;20056;-67
2021/08/05 03:21:24;;;;;;;5.13;3.90;;;15.90;92.20;;;;;;5005327;28;20030;-67
2021/08/05 03:23:50;;;;;;;5.93;4.05;;;15.90;92.20;;;;;;5010250;28;20452;-67
2021/08/05 03:26:15;;;;;;;5.75;3.70;;;15.90;92.20;;;;;;5009109;28;20045;-67
2021/08/05 03:28:41;;;;;;;4.65;3.88;;;15.90;92.20;;;;;;5009753;28;20034;-67
2021/08/05 03:31:06;;;;;;;5.63;4.00;;;15.80;92.20;;;;;;5009960;28;20025;-67
2021/08/05 03:33:32;;;;;;;4.80;3.75;;;15.80;92.20;;;;;;5010087;28;20026;-68
2021/08/05 03:35:58;;;;;;;5.63;3.55;;;15.80;92.20;;;;;;5008639;28;20026;-67
2021/08/05 03:38:23;;;;;;;5.38;3.75;;;15.80;92.30;;;;;;5010166;28;20100;-67
2021/08/05 03:40:49;;;;;;;4.95;3.72;;;15.80;92.30;;;;;;5009488;28;20109;-67
2021/08/05 03:43:14;;;;;;;4.57;3.70;;;15.80;92.30;;;;;;5010051;28;20032;-67
2021/08/05 03:45:40;;;;;;;7.05;4.60;;;15.80;92.30;;;;;;5008680;28;20053;-67
2021/08/05 03:48:06;;;;;;;5.57;4.10;;;15.70;92.30;;;;;;4992650;28;20107;-67
2021/08/05 03:50:31;;;;;;;5.35;4.03;;;15.70;92.30;;;;;;5013690;28;20034;-67
2021/08/05 03:52:57;;;;;;;5.47;3.88;;;15.70;92.30;;;;;;5010146;28;20030;-67
2021/08/05 03:55:23;;;;;;;6.70;4.75;;;15.70;92.30;;;;;;5012644;28;20040;-67
2021/08/05 03:57:48;;;;;;;6.15;4.10;;;15.70;92.40;;;;;;5012685;28;20030;-67
2021/08/05 04:00:16;;;;;;;4.38;3.42;;;15.60;92.30;;;;;;5013528;28;20034;-67
2021/08/05 04:02:42;;;;;;;5.07;3.47;;;15.60;92.40;;;;;;5013276;28;20529;-68
2021/08/05 04:05:09;;;;;;;6.47;4.25;;;15.60;92.40;;;;;;5020154;28;20034;-67
2021/08/05 04:07:34;;;;;;;8.82;3.58;;;15.60;92.30;;;;;;5012943;28;20490;-67
2021/08/05 04:10:00;;;;;;;6.38;3.65;;;15.50;92.30;;;;;;5013535;28;20057;-67
2021/08/05 04:12:26;;;;;;;4.97;3.60;;;15.50;92.30;;;;;;5013218;28;20386;-67
2021/08/05 04:14:51;;;;;;;7.95;4.18;;;15.40;92.30;;;;;;5012235;28;20125;-67
2021/08/05 04:17:17;;;;;;;4.28;3.55;;;15.40;92.30;;;;;;5013303;28;20480;-67
2021/08/05 04:19:42;;;;;;;4.82;4.03;;;15.40;92.30;;;;;;5025526;28;20067;-67
2021/08/05 04:22:08;;;;;;;6.28;3.83;;;15.30;92.30;;;;;;5012665;28;20052;-67
2021/08/05 04:24:33;;;;;;;6.07;4.05;;;15.30;92.30;;;;;;5012625;28;20094;-67
2021/08/05 04:26:59;;;;;;;6.53;3.97;;;15.30;92.40;;;;;;5012835;28;20525;-67
2021/08/05 04:29:25;;;;;;;5.68;4.53;;;15.30;92.50;;;;;;5012726;28;20029;-67
2021/08/05 04:31:51;;;;;;;6.07;4.32;;;15.30;92.40;;;;;;5012575;28;20026;-68
2021/08/05 04:34:16;;;;;;;5.65;4.68;;;15.30;92.40;;;;;;5012444;28;20060;-68
2021/08/05 04:36:42;;;;;;;6.50;4.22;;;15.30;92.40;;;;;;5011277;28;20391;-67
2021/08/05 04:39:08;;;;;;;6.18;4.22;;;15.30;92.40;;;;;;5012357;28;20121;-67
2021/08/05 04:41:33;;;;;;;6.47;4.55;;;15.30;92.40;;;;;;5012974;28;20041;-67
2021/08/05 04:43:59;;;;;;;6.65;4.80;;;15.30;92.30;;;;;;5012365;28;20096;-67
2021/08/05 04:46:26;;;;;;;6.15;5.07;;;15.30;92.30;;;;;;5011846;28;20474;-67
2021/08/05 04:48:52;;;;;;;7.22;4.93;;;15.30;92.40;;;;;;5011832;28;20060;-67
2021/08/05 04:51:17;;;;;;;5.95;4.38;;;15.20;92.30;;;;;;5012500;28;20025;-67
2021/08/05 04:53:43;;;;;;;8.23;4.68;;;15.20;92.40;;;;;;5012787;28;20096;-67
2021/08/05 04:56:09;;;;;;;6.57;4.68;;;15.20;92.40;;;;;;5011029;28;20440;-67
2021/08/05 04:58:34;;;;;;;7.32;4.70;;;15.20;92.50;;;;;;5011957;28;20049;-67
2021/08/05 05:01:00;;;;;;;5.43;3.80;;;15.20;92.50;;;;;;5012784;28;20040;-67
2021/08/05 05:03:26;;;;;;;5.55;4.00;;;15.30;92.60;;;;;;5011697;28;20109;-67
2021/08/05 05:05:51;;;;;;;5.75;4.03;;;15.20;92.50;;;;;;5013341;28;20478;-67
2021/08/05 05:08:26;;;;;;;6.18;4.22;;;15.30;92.60;;;;;;5012066;28;20062;-67
2021/08/05 05:10:56;;;;;;;5.75;4.00;;;15.30;92.70;;;;;;4993148;28;20037;-67
2021/08/05 05:13:21;;;;;;;5.88;4.20;;;15.30;92.60;;;;;;5007344;28;20467;-67
2021/08/05 05:15:47;;;;;;;7.97;4.25;;;15.40;92.90;;;;;;5010107;28;20109;-67
2021/08/05 05:18:17;;;;;;;6.53;4.30;;;15.40;92.70;;;;;;5011744;28;20057;-69
2021/08/05 05:20:43;;;;;;;5.68;4.22;;;15.50;92.70;;;;;;4992577;28;20029;-67
2021/08/05 05:23:09;;;;;;;4.93;3.42;;;15.50;92.60;;;;;;5011921;28;20025;-67
2021/08/05 05:25:35;;;;;;;4.90;3.75;;;15.50;92.70;;;;;;5011408;28;20030;-67
2021/08/05 05:28:02;;;;;;;7.32;4.05;;;15.50;92.60;;;;;;5010361;28;20117;-68
2021/08/05 05:30:28;;;;;;;4.68;3.67;;;15.60;92.60;;;;;;5012220;28;20504;-66
2021/08/05 05:32:53;;;;;;;5.68;3.70;;;15.60;92.80;;;;;;5011094;28;20034;-68
2021/08/05 05:35:20;;;;;;;5.82;3.40;;;15.50;92.50;;;;;;5010013;28;20058;-68
2021/08/05 05:37:49;;;;;;;5.97;3.20;;;15.50;92.50;;;;;;5011132;28;20409;-67
2021/08/05 05:40:15;;;;;;;4.57;2.97;;;15.50;92.50;;;;;;5012210;28;20586;-67
2021/08/05 05:42:41;;;;;;;5.88;3.25;;;15.40;92.50;;;;;;5011431;28;20048;-67
2021/08/05 05:45:09;;;;;;;4.93;2.85;;;15.50;92.60;;;;;;5011437;28;20381;-67
2021/08/05 05:47:34;;;;;;;5.53;2.97;;;15.50;92.50;;;;;;5011294;28;20052;-67
2021/08/05 05:50:00;;;;;;;4.15;3.40;;;15.50;92.50;;;;;;5011158;28;20478;-67
2021/08/05 05:52:26;;;;;;;4.18;3.00;;;15.60;92.40;;;;;;5009203;28;20478;-71
2021/08/05 05:54:51;;;;;;;3.72;2.95;;;15.50;92.30;;;;;;5011159;28;20029;-66
2021/08/05 05:57:17;;;;;;;3.95;2.67;;;15.50;92.40;;;;;;5010466;28;20037;-67
2021/08/05 05:59:42;;;;;;;3.95;3.10;;;15.50;92.30;;;;;;5010250;28;20033;-68
2021/08/05 06:02:09;;;;;;;5.85;3.42;;;15.50;92.40;;;;;;5009790;28;20095;-68
2021/08/05 06:04:35;;;;;;;4.38;3.53;;;15.50;92.40;;;;;;5011051;28;20026;-67
2021/08/05 06:07:00;;;;;;;5.40;3.38;;;15.50;92.40;;;;;;5011104;28;20033;-67
2021/08/05 06:09:26;;;;;;;5.13;3.33;;;15.50;92.40;;;;;;5011439;28;20018;-67
2021/08/05 06:11:51;;;;;;;5.60;3.80;;;15.50;92.50;;;;;;5011413;28;20033;-67
2021/08/05 06:14:17;;;;;;;4.65;3.30;;;15.60;92.50;;;;;;5010777;28;20037;-66
2021/08/05 06:16:43;;;;;;;5.60;3.95;;;15.60;92.60;;;;;;5008592;28;20076;-67
2021/08/05 06:19:09;;;;;;;5.82;3.88;;;15.80;92.50;;;;;;5009855;28;20033;-66
2021/08/05 06:21:35;;;;;;;5.45;3.97;;;15.80;92.50;;;;;;5009926;28;20471;-67
2021/08/05 06:24:00;;;;;;;4.95;3.88;;;15.90;92.40;;;;;;5011570;28;20034;-68
2021/08/05 06:26:26;;;;;;;5.90;3.83;;;16.00;92.40;;;;;;5010164;28;20035;-67
2021/08/05 06:28:52;;;;;;;6.03;3.30;;;16.00;92.40;;;;;;5011067;28;20026;-66
2021/08/05 06:31:19;;;;;;;5.45;3.67;;;16.10;92.40;;;;;;4993135;28;20113;-67
2021/08/05 06:33:47;;;;;;;4.05;3.20;;;16.10;92.40;;;;;;5011342;28;20026;-67
2021/08/05 06:36:13;;;;;;;5.05;3.13;;;16.10;92.30;;;;;;5010015;28;20057;-68
2021/08/05 06:38:39;;;;;;;6.63;3.10;;;16.10;92.20;;;;;;5011082;28;20029;-69
2021/08/05 06:41:05;;;;;;;4.97;3.30;;;16.20;92.30;;;;;;5011424;28;20022;-66
2021/08/05 06:43:31;;;;;;;4.60;3.25;;;16.20;92.30;;;;;;5011070;28;20498;-66
2021/08/05 06:45:56;;;;;;;5.38;3.40;;;16.30;92.30;;;;;;5010303;28;20033;-66
2021/08/05 06:48:22;;;;;;;4.75;3.10;;;16.30;92.30;;;;;;5011087;28;20501;-66
2021/08/05 06:50:47;;;;;;;4.47;3.15;;;16.40;92.30;;;;;;5010883;28;20489;-67
2021/08/05 06:53:13;;;;;;;4.05;3.20;;;16.50;92.30;;;;;;5011021;28;20033;-66
2021/08/05 06:55:38;;;;;;;4.03;3.13;;;16.70;92.20;;;;;;5010112;28;20583;-66
2021/08/05 06:58:04;;;;;;;4.45;2.72;;;16.90;92.10;;;;;;5011169;28;20026;-66
2021/08/05 07:00:30;;;;;;;3.03;2.67;;;17.00;92.00;;;;;;5008511;28;20029;-67
2021/08/05 07:02:55;;;;;;;4.28;2.45;;;17.20;91.90;;;;;;5011199;28;20034;-68
2021/08/05 07:05:21;;;;;;;2.85;2.38;;;17.30;91.80;;;;;;5009798;28;20422;-66
2021/08/05 07:07:47;;;;;;;3.83;2.53;;;17.50;91.70;;;;;;5010396;28;20041;-66
2021/08/05 07:10:12;;;;;;;4.30;2.60;;;17.70;91.60;;;;;;5023650;28;20067;-67
2021/08/05 07:12:38;;;;;;;3.25;2.60;;;17.80;91.50;;;;;;5026964;28;20089;-67
2021/08/05 07:15:04;;;;;;;3.83;2.58;;;18.00;91.30;;;;;;5009691;28;20516;-67
2021/08/05 07:17:30;;;;;;;7.32;4.43;;;18.10;91.00;;;;;;5010507;28;20109;-67
2021/08/05 07:19:56;;;;;;;2.95;2.50;;;18.10;91.00;;;;;;5010861;28;20069;-66
2021/08/05 07:22:21;;;;;;;4.38;2.40;;;18.10;91.00;;;;;;5010996;28;20084;-66
2021/08/05 07:24:47;;;;;;;4.20;2.28;;;18.10;90.90;;;;;;5010131;28;20056;-66
2021/08/05 07:27:12;;;;;;;3.20;2.40;;;18.10;90.70;;;;;;5011044;28;20054;-68
2021/08/05 07:29:38;;;;;;;4.53;2.58;;;18.10;90.70;;;;;;5014896;28;20073;-67
2021/08/05 07:32:04;;;;;;;2.35;2.15;;;18.10;90.50;;;;;;5014929;28;20018;-66
2021/08/05 07:34:34;;;;;;;3.35;2.20;;;18.10;90.60;;;;;;5013805;28;20029;-67
2021/08/05 07:37:00;;;;;;;3.33;2.80;;;18.10;90.60;;;;;;5014551;28;20018;-67
2021/08/05 07:39:25;;;;;;;3.55;2.38;;;18.20;90.40;;;;;;5014787;28;20049;-67
2021/08/05 07:41:51;;;;;;;2.55;2.25;;;18.30;90.30;;;;;;5014645;28;20371;-67
2021/08/05 07:44:16;;;;;;;2.38;2.15;;;18.60;90.10;;;;;;5014471;28;20109;-67
2021/08/05 07:46:47;;;;;;;2.95;2.42;;;18.90;89.60;;;;;;5013186;28;20764;-66
2021/08/05 07:49:12;;;;;;;3.63;2.45;;;19.40;88.70;;;;;;5014432;28;20030;-66
2021/08/05 07:51:38;;;;;;;5.10;2.47;;;19.90;87.60;;;;;;5014243;28;20363;-67
2021/08/05 07:54:05;;;;;;;2.30;2.10;;;20.50;87.10;;;;;;5014526;28;20486;-66
2021/08/05 07:56:31;;;;;;;2.75;2.15;;;21.00;86.10;;;;;;5013206;28;20423;-67
2021/08/05 07:58:56;;;;;;;2.08;1.90;;;21.60;85.30;;;;;;5010742;28;20102;-67
2021/08/05 08:01:22;;;;;;;2.28;2.00;;;21.60;84.80;;;;;;5012060;28;20105;-67
2021/08/05 08:03:48;;;;;;;2.83;2.10;;;21.40;84.40;;;;;;5013768;28;20026;-67
2021/08/05 08:06:13;;;;;;;3.40;2.40;;;21.20;83.40;;;;;;5012696;28;20041;-67
2021/08/05 08:08:39;;;;;;;3.05;2.20;;;20.80;82.90;;;;;;5013779;28;20030;-66
2021/08/05 08:11:04;;;;;;;2.40;2.20;;;20.50;83.50;;;;;;5014181;28;20024;-67
2021/08/05 08:13:31;;;;;;;2.35;1.88;;;20.30;83.90;;;;;;5013396;28;20025;-67
2021/08/05 08:15:57;;;;;;;3.92;1.65;;;20.20;84.10;;;;;;5012660;28;20053;-67
2021/08/05 08:18:23;;;;;;;2.38;2.17;;;20.20;84.60;;;;;;5013600;28;20434;-67
2021/08/05 08:20:49;;;;;;;2.50;2.30;;;20.20;84.20;;;;;;5013920;28;20030;-67
2021/08/05 08:23:14;;;;;;;2.58;1.98;;;20.20;84.00;;;;;;5014009;28;20028;-67
2021/08/05 08:25:40;;;;;;;2.97;2.13;;;20.10;84.00;;;;;;5012816;28;20033;-67
2021/08/05 08:28:07;;;;;;;2.20;2.00;;;20.00;84.10;;;;;;4994471;28;20526;-67
2021/08/05 08:30:33;;;;;;;3.42;2.13;;;19.90;84.10;;;;;;5013591;28;20371;-67
2021/08/05 08:32:59;;;;;;;2.20;2.03;;;19.80;83.80;;;;;;5012516;28;20037;-66
2021/08/05 08:35:24;;;;;;;2.30;2.20;;;19.70;83.50;;;;;;5012334;28;20551;-67
2021/08/05 08:37:50;;;;;;;2.88;2.40;;;19.60;83.70;;;;;;5013337;28;20026;-67
2021/08/05 08:40:17;;;;;;;4.43;2.10;;;19.50;83.90;;;;;;5012804;28;20084;-67
2021/08/05 08:42:43;;;;;;;2.40;2.20;;;19.50;83.90;;;;;;5013089;28;20022;-67
2021/08/05 08:45:10;;;;;;;1.90;1.60;;;19.50;83.70;;;;;;5012442;28;20025;-67
2021/08/05 08:47:37;;;;;;;5.82;2.00;;;19.50;84.10;;;;;;5013182;28;20030;-66
2021/08/05 08:50:04;;;;;;;2.25;2.05;;;19.60;84.10;;;;;;5013478;28;20474;-67
2021/08/05 08:52:32;;;;;;;2.40;2.13;;;19.60;84.30;;;;;;5013407;28;20049;-68
2021/08/05 08:55:01;;;;;;;4.13;2.10;;;19.60;84.00;;;;;;5012368;28;20072;-67
2021/08/05 08:57:32;;;;;;;2.40;2.15;;;19.60;83.80;;;;;;5012710;28;20041;-66
2021/08/05 08:59:58;;;;;;;3.00;2.17;;;19.60;84.20;;;;;;5010217;28;20038;-67
2021/08/05 09:05:06;;;;;;;2.67;2.30;;;19.60;84.00;;;;;;5019493;28;20414;-65
2021/08/05 09:07:33;;;;;;;2.17;1.92;;;19.70;83.80;;;;;;4992435;28;20025;-66
2021/08/05 09:09:59;;;;;;;2.20;2.00;;;19.80;84.00;;;;;;5012855;28;20382;-70
2021/08/05 09:12:24;;;;;;;3.80;2.45;;;19.90;83.30;;;;;;5012418;28;20026;-66
2021/08/05 09:14:52;;;;;;;2.28;2.03;;;20.00;83.60;;;;;;5011553;28;20397;-66
2021/08/05 09:17:21;;;;;;;2.63;1.70;;;20.10;83.60;;;;;;5011412;28;20492;-66
2021/08/05 09:19:50;;;;;;;2.83;1.92;;;20.10;83.30;;;;;;5012789;28;20397;-66
2021/08/05 09:22:33;;;;;;;2.97;1.80;;;20.10;83.20;;;;;;5012454;28;20033;-66
2021/08/05 09:24:59;;;;;;;2.10;1.85;;;20.10;82.90;;;;;;5011898;28;20113;-66
2021/08/05 09:27:34;;;;;;;3.83;2.10;;;20.20;83.20;;;;;;5012219;28;20117;-66
2021/08/05 09:30:00;;;;;;;1.98;1.80;;;20.30;83.20;;;;;;5012726;28;20470;-66
2021/08/05 09:32:30;;;;;;;4.07;2.33;;;20.50;82.50;;;;;;5012590;28;20026;-70
2021/08/05 09:35:09;;;;;;;2.97;1.90;;;20.50;81.70;;;;;;5011076;28;20038;-66
2021/08/05 09:37:36;;;;;;;2.17;1.98;;;20.60;81.20;;;;;;5009152;28;20026;-66
2021/08/05 09:40:14;;;;;;;3.33;1.95;;;20.70;81.80;;;;;;4992715;28;20022;-67
2021/08/05 09:42:40;;;;;;;2.88;2.20;;;20.70;80.90;;;;;;4975268;28;20022;-66
2021/08/05 09:45:07;;;;;;;2.10;1.90;;;20.90;81.50;;;;;;4994655;28;20029;-66
2021/08/05 09:47:42;;;;;;;1.95;1.83;;;21.30;80.90;;;;;;5003777;28;20033;-66
2021/08/05 09:50:09;;;;;;;2.55;2.00;;;21.70;79.70;;;;;;5012001;28;20014;-66
2021/08/05 09:52:36;;;;;;;2.95;2.10;;;21.90;79.50;;;;;;5012356;28;20514;-66
2021/08/05 09:55:07;;;;;;;1.90;1.80;;;21.80;79.20;;;;;;5011079;28;20041;-65
2021/08/05 09:57:37;;;;;;;1.98;1.83;;;21.60;79.10;;;;;;5011353;28;20026;-66
2021/08/05 10:00:13;;;;;;;1.77;1.42;;;21.40;78.60;;;;;;5008661;28;20426;-67
2021/08/05 10:02:42;;;;;;;2.83;1.58;;;21.30;77.80;;;;;;5011826;28;20018;-65
2021/08/05 10:05:11;;;;;;;4.78;1.50;;;21.50;77.80;;;;;;4993103;28;20018;-67
2021/08/05 10:07:44;;;;;;;1.80;1.52;;;21.90;77.80;;;;;;5031384;28;20030;-71
2021/08/05 10:10:10;;;;;;;1.58;1.48;;;21.90;78.10;;;;;;5029610;28;20017;-67
2021/08/05 10:12:37;;;;;;;2.40;1.70;;;21.90;77.10;;;;;;5024598;28;20038;-66
2021/08/05 10:15:12;;;;;;;1.65;1.40;;;21.90;76.90;;;;;;5006106;28;20049;-67
2021/08/05 10:17:39;;;;;;;1.50;1.40;;;21.70;76.20;;;;;;4993101;28;20125;-66
2021/08/05 10:20:08;;;;;;;3.50;1.60;;;21.80;76.90;;;;;;5011680;28;20033;-67
2021/08/05 10:22:35;;;;;;;3.35;2.63;;;22.00;76.80;;;;;;5011790;28;20036;-67
2021/08/05 10:25:02;;;;;;;3.00;1.60;;;22.10;77.00;;;;;;5010029;28;20068;-67
2021/08/05 10:27:29;;;;;;;2.28;1.40;;;22.30;76.70;;;;;;4993806;28;20136;-65
2021/08/05 10:29:57;;;;;;;4.95;1.50;;;22.40;76.00;;;;;;5011649;28;20083;-67
2021/08/05 10:32:23;;;;;;;2.17;1.60;;;22.60;76.20;;;;;;5011004;28;20045;-65
2021/08/05 10:34:50;;;;;;;3.25;1.55;;;22.70;75.90;;;;;;5010049;28;20037;-65
2021/08/05 10:37:15;;;;;;;5.18;1.80;;;22.80;76.40;;;;;;5011201;28;20034;-70
2021/08/05 10:39:43;;;;;;;1.60;1.50;;;22.90;75.30;;;;;;5010589;28;20105;-69
2021/08/05 10:42:13;;;;;;;1.70;1.60;;;22.60;74.30;;;;;;5011322;28;20028;-66
2021/08/05 10:44:39;;;;;;;2.40;1.42;;;22.50;74.20;;;;;;5010594;28;20049;-65
2021/08/05 10:47:13;;;;;;;56.22;44.40;;;22.40;74.60;;;;;;5011075;28;20022;-66
2021/08/05 10:49:39;;;;;;;1.95;1.85;;;22.30;73.40;;;;;;5011421;28;20386;-66
2021/08/05 10:52:05;;;;;;;2.75;1.80;;;22.30;73.70;;;;;;5011094;28;20394;-66
2021/08/05 10:54:46;;;;;;;2.17;1.85;;;22.10;73.40;;;;;;5010286;28;20029;-67
2021/08/05 10:57:17;;;;;;;1.67;1.30;;;21.90;73.60;;;;;;5010878;28;20026;-66
2021/08/05 11:00:00;;;;;;;2.13;1.40;;;21.70;73.80;;;;;;5010453;28;20101;-66
2021/08/05 11:02:47;;;;;;;1.70;1.27;;;21.50;73.70;;;;;;5008970;28;20033;-69
2021/08/05 11:05:41;;;;;;;4.20;1.52;;;21.40;74.30;;;;;;5005366;28;20029;-67
2021/08/05 11:08:09;;;;;;;1.73;1.48;;;21.30;74.30;;;;;;5010605;28;20068;-66
2021/08/05 11:10:37;;;;;;;1.40;1.30;;;21.10;74.60;;;;;;4993567;28;20026;-67
2021/08/05 11:13:09;;;;;;;1.60;1.50;;;21.10;74.90;;;;;;4986109;28;20022;-66
2021/08/05 11:15:34;;;;;;;1.60;1.50;;;21.00;74.40;;;;;;5009129;28;20034;-68
2021/08/05 11:18:16;;;;;;;3.00;1.50;;;21.00;74.40;;;;;;5010157;28;20022;-65
2021/08/05 11:21:01;;;;;;;1.25;1.15;;;21.00;74.50;;;;;;5010043;28;20169;-65
2021/08/05 11:23:34;;;;;;;1.40;1.30;;;21.00;74.80;;;;;;4999872;28;20042;-66
2021/08/05 11:25:59;;;;;;;2.08;1.08;;;21.10;75.20;;;;;;5010351;28;20101;-65
2021/08/05 11:28:26;;;;;;;1.45;1.10;;;21.00;74.50;;;;;;5010802;28;20057;-65
2021/08/05 11:30:59;;;;;;;1.20;1.15;;;21.10;74.90;;;;;;5010724;28;20026;-67
2021/08/05 11:33:36;;;;;;;1.40;1.30;;;21.10;75.30;;;;;;5010361;28;20022;-71
2021/08/05 11:36:14;;;;;;;2.65;1.20;;;21.30;75.50;;;;;;5009306;28;20358;-67
2021/08/05 11:39:12;;;;;;;3.05;1.50;;;21.50;74.80;;;;;;5010762;28;20030;-68
2021/08/05 11:41:57;;;;;;;2.15;1.10;;;21.90;74.80;;;;;;5010707;28;20037;-68
2021/08/05 11:44:29;;;;;;;4.28;1.30;;;22.10;74.40;;;;;;4993090;28;20030;-69
2021/08/05 11:47:03;;;;;;;1.40;1.30;;;22.20;74.20;;;;;;5009986;28;20076;-70
2021/08/05 11:49:34;;;;;;;1.50;1.40;;;22.20;73.90;;;;;;5010733;28;20422;-70
2021/08/05 11:52:13;;;;;;;2.40;1.83;;;22.20;73.50;;;;;;5010558;28;20026;-69
2021/08/05 11:54:47;;;;;;;1.30;1.20;;;22.20;72.80;;;;;;5003627;28;20466;-71
2021/08/05 11:57:16;;;;;;;2.13;1.08;;;22.20;72.60;;;;;;5010484;28;20021;-71
2021/08/05 11:59:42;;;;;;;1.75;1.00;;;22.00;72.10;;;;;;5009711;28;20021;-68
2021/08/05 12:02:14;;;;;;;1.17;1.08;;;21.90;71.50;;;;;;5006793;28;20096;-67
2021/08/05 12:04:40;;;;;;;2.15;1.08;;;21.80;71.10;;;;;;5009343;28;20661;-67
2021/08/05 12:07:29;;;;;;;1.20;1.10;;;21.70;71.40;;;;;;5010316;28;20057;-68
2021/08/05 12:10:14;;;;;;;1.58;1.08;;;21.60;72.40;;;;;;4992070;28;20018;-66
2021/08/05 12:12:42;;;;;;;1.52;1.42;;;21.60;73.50;;;;;;4994644;28;20029;-68
2021/08/05 12:15:11;;;;;;;3.05;1.27;;;21.70;73.70;;;;;;4993237;28;20054;-67
2021/08/05 12:17:49;;;;;;;1.88;1.30;;;21.80;73.90;;;;;;5013611;28;20044;-66
2021/08/05 12:20:17;;;;;;;1.55;1.38;;;22.00;73.10;;;;;;5013515;28;20026;-66
2021/08/05 12:22:47;;;;;;;1.00;0.98;;;22.30;74.10;;;;;;5013704;28;20026;-66
2021/08/05 12:25:31;;;;;;;2.20;1.40;;;22.50;73.60;;;;;;5012079;28;20021;-68
2021/08/05 12:28:03;;;;;;;2.25;1.25;;;22.60;73.00;;;;;;5013569;28;20470;-66
2021/08/05 12:30:33;;;;;;;;;;;22.70;73.20;;;;;;5014342;28;20024;-66
2021/08/05 12:33:06;;;;;;;1.23;1.13;;;22.60;73.10;;;;;;5013646;28;19959;-68
2021/08/05 12:35:32;;;;;;;1.33;1.23;;;22.50;72.60;;;;;;5012600;28;20093;-66
2021/08/05 12:38:09;;;;;;;1.83;1.05;;;22.30;72.40;;;;;;5013192;28;20109;-66
2021/08/05 12:40:41;;;;;;;2.15;1.30;;;22.30;72.30;;;;;;5013109;28;20030;-70
2021/08/05 12:43:09;;;;;;;2.50;0.98;;;22.30;72.40;;;;;;5013281;28;20053;-67
2021/08/05 12:45:40;;;;;;;2.10;1.30;;;22.30;72.20;;;;;;5012537;28;20056;-66
2021/08/05 12:48:07;;;;;;;1.30;0.90;;;22.30;72.00;;;;;;5013214;28;20419;-66
2021/08/05 12:50:43;;;;;;;1.35;1.17;;;22.30;72.10;;;;;;5013291;28;20022;-66
2021/08/05 12:53:11;;;;;;;1.58;1.35;;;22.50;71.70;;;;;;5013024;28;20041;-67
2021/08/05 12:55:47;;;;;;;1.38;1.00;;;22.70;72.00;;;;;;5012276;28;20029;-65
2021/08/05 12:58:18;;;;;;;1.77;1.02;;;22.90;72.30;;;;;;5013098;28;20148;-69